Skip Navigation Links Skip Navigation Links

Current Weather

Gulkana, Alaska

For information only: do not use for flight planning or navigation.
Latest weather
Observation time Tuesday, October 26, 2021 11:32 PM AKDT
Local time Tuesday, October 26, 2021 11:45 PM AKDT
Flight conditions Marginal Visual Meteorological Conditions
Winds
Wind speed calm
Visibility 10 mi.
Sky condition
Ceiling 2,700 ft. broken clouds
Cloud layer broken clouds 2,700 ft.
Cloud layer broken clouds 8,000 ft.
Cloud layer overcast 9,000 ft.
Temperature 15°F
Dewpoint 12°F
Altimeter 29.32 in.Hg
Derived measurements
Relative humidity 87%
Wind chill 15°F
Density altitude -717 ft.
Remarks
Fully automated report.
System requires maintenance.
Automated weather observing station with precipitation discriminator.
Lightning detection system not operating.
METAR PAGK 270732Z AUTO 00000KT 10SM BKN027 BKN080 OVC090 M09/M11 A2932 RMK AO2 T10941111 TSNO $

Settings

Location code

InnerDrive.Weather 4.0.6770.0 Release CLR 4.0.30319.42000
Copyright ©2018 Inner Drive Technology. All rights reserved. Portions Copyright ©1986-2018 David Braverman.

Find weather

Site navigation


Skip Navigation Links

Place info

Page info

PayPal - The safer, easier way to pay online!

Return home.

Copyright ©2021 Inner Drive Technology. Purveyors of fine, hand-crafted computer software. Page printed 2021-10-27T07:45:43 UTC.